createdAt,value
2018-05-10T00:01:54.961Z,97954.72
2018-05-10T00:04:28.640Z,97957.36
2018-05-10T00:07:02.278Z,97958.54
2018-05-10T00:09:35.887Z,97963.33
2018-05-10T00:12:09.572Z,97966.23
2018-05-10T00:14:43.124Z,97963.83
2018-05-10T00:17:16.776Z,97966.48
2018-05-10T00:19:50.355Z,97971.22
2018-05-10T00:22:23.904Z,97971.27
2018-05-10T00:24:57.488Z,97972.41
2018-05-10T00:27:31.024Z,97969.53
2018-05-10T00:30:04.834Z,97968.16
2018-05-10T00:32:38.475Z,97971.66
2018-05-10T00:35:12.231Z,97970.55
2018-05-10T00:37:45.901Z,97968.02
2018-05-10T00:40:19.494Z,97970.88
2018-05-10T00:42:53.213Z,97979.85
2018-05-10T00:45:26.860Z,97977.06
2018-05-10T00:48:00.379Z,97982.70
2018-05-10T00:50:34.184Z,97985.20
2018-05-10T00:53:07.760Z,97984.81
2018-05-10T00:55:41.340Z,97986.98
2018-05-10T00:58:14.967Z,97984.84
2018-05-10T01:00:48.709Z,97986.17
2018-05-10T01:03:22.260Z,97987.89
2018-05-10T01:05:55.908Z,97992.95
2018-05-10T01:08:29.688Z,97996.28
2018-05-10T01:11:03.316Z,97990.99
2018-05-10T01:13:37.178Z,97994.89
2018-05-10T01:16:11.089Z,97983.30
2018-05-10T01:18:44.704Z,97986.38
2018-05-10T01:21:18.291Z,97991.64
2018-05-10T01:23:51.915Z,97995.86
2018-05-10T01:26:25.924Z,97999.39
2018-05-10T01:28:59.656Z,98006.20
2018-05-10T01:31:33.264Z,98005.91
2018-05-10T01:34:06.847Z,98003.98
2018-05-10T01:36:40.488Z,98000.81
2018-05-10T01:39:14.209Z,98001.06
2018-05-10T01:41:48.016Z,97996.84
2018-05-10T01:44:21.532Z,97994.83
2018-05-10T01:46:55.543Z,98002.09
2018-05-10T01:49:29.089Z,98001.36
2018-05-10T01:52:02.611Z,98007.56
2018-05-10T01:54:36.144Z,98011.69
2018-05-10T01:57:09.702Z,98007.17
2018-05-10T01:59:43.319Z,98012.16
2018-05-10T02:02:16.896Z,98014.11
2018-05-10T02:04:50.455Z,98015.20
2018-05-10T02:07:24.072Z,98015.84
2018-05-10T02:09:58.060Z,98023.77
2018-05-10T02:12:31.822Z,98027.62
2018-05-10T02:15:05.328Z,98027.98
2018-05-10T02:17:39.028Z,98029.70
2018-05-10T02:20:12.516Z,98030.03
2018-05-10T02:22:46.232Z,98036.04
2018-05-10T02:25:19.818Z,98040.34
2018-05-10T02:27:53.403Z,98042.93
2018-05-10T02:30:27.186Z,98039.41
2018-05-10T02:33:00.795Z,98037.09
2018-05-10T02:35:34.358Z,98045.78
2018-05-10T02:38:07.957Z,98047.42
2018-05-10T02:40:41.514Z,98050.44
2018-05-10T02:43:15.235Z,98046.98
2018-05-10T02:45:48.865Z,98046.87
2018-05-10T02:48:22.416Z,98045.50
2018-05-10T02:50:56.110Z,98052.44
2018-05-10T02:53:29.598Z,98055.56
2018-05-10T02:56:03.352Z,98061.50
2018-05-10T02:58:37.054Z,98066.34
2018-05-10T03:01:10.740Z,98069.96
2018-05-10T03:03:44.445Z,98067.48
2018-05-10T03:06:17.961Z,98062.91
2018-05-10T03:08:51.672Z,98067.19
2018-05-10T03:11:25.431Z,98068.02
2018-05-10T03:13:59.103Z,98071.19
2018-05-10T03:16:32.640Z,98074.16
2018-05-10T03:19:06.177Z,98078.07
2018-05-10T03:21:39.732Z,98077.30
2018-05-10T03:24:13.309Z,98083.77
2018-05-10T03:26:46.860Z,98085.56
2018-05-10T03:29:20.572Z,98079.00
2018-05-10T03:31:54.196Z,98077.75
2018-05-10T03:34:27.772Z,98081.57
2018-05-10T03:37:01.353Z,98084.00
2018-05-10T03:39:34.913Z,98087.92
2018-05-10T03:42:08.608Z,98095.98
2018-05-10T03:44:42.169Z,98092.76
2018-05-10T03:47:15.732Z,98090.60
2018-05-10T03:49:49.227Z,98095.55
2018-05-10T03:52:23.000Z,98095.30
2018-05-10T03:54:56.720Z,98102.80
2018-05-10T03:57:30.319Z,98104.04
2018-05-10T04:00:03.892Z,98109.54
2018-05-10T04:02:41.484Z,98111.11
2018-05-10T04:05:26.992Z,98111.09
2018-05-10T04:08:12.387Z,98118.77
2018-05-10T04:10:57.980Z,98120.94
2018-05-10T04:13:32.504Z,98130.48
2018-05-10T04:16:06.042Z,98130.70
2018-05-10T04:18:39.545Z,98135.54
2018-05-10T04:21:13.264Z,98132.67
2018-05-10T04:23:46.823Z,98135.48
2018-05-10T04:26:20.420Z,98142.11
2018-05-10T04:28:54.004Z,98145.84
2018-05-10T04:31:27.604Z,98151.42
2018-05-10T04:34:01.191Z,98149.83
2018-05-10T04:36:34.812Z,98152.17
2018-05-10T04:39:08.344Z,98156.64
2018-05-10T04:41:42.036Z,98162.83
2018-05-10T04:44:15.616Z,98161.42
2018-05-10T04:46:49.379Z,98164.36
2018-05-10T04:49:23.106Z,98169.94
2018-05-10T04:51:56.744Z,98168.86
2018-05-10T04:54:30.428Z,98172.70
2018-05-10T04:57:04.216Z,98175.72
2018-05-10T04:59:38.184Z,98174.00
2018-05-10T05:02:11.812Z,98177.30
2018-05-10T05:04:45.572Z,98183.48
2018-05-10T05:07:19.101Z,98185.35
2018-05-10T05:09:52.928Z,98187.58
2018-05-10T05:12:26.566Z,98185.19
2018-05-10T05:15:00.184Z,98185.30
2018-05-10T05:17:33.847Z,98183.22
2018-05-10T05:20:07.615Z,98185.89
2018-05-10T05:22:41.356Z,98182.27
2018-05-10T05:25:14.860Z,98181.23
2018-05-10T05:27:48.644Z,98188.17
2018-05-10T05:30:22.169Z,98189.26
2018-05-10T05:32:55.920Z,98198.72
2018-05-10T05:35:29.539Z,98203.89
2018-05-10T05:38:03.052Z,98199.12
2018-05-10T05:40:36.632Z,98204.96
2018-05-10T05:43:10.279Z,98205.83
2018-05-10T05:45:44.154Z,98199.11
2018-05-10T05:48:17.917Z,98204.22
2018-05-10T05:50:51.549Z,98216.52
2018-05-10T05:53:25.211Z,98225.13
2018-05-10T05:55:58.800Z,98237.36
2018-05-10T05:58:32.564Z,98235.28
2018-05-10T06:01:06.257Z,98239.83
2018-05-10T06:03:39.756Z,98232.66
2018-05-10T06:06:13.289Z,98247.06
2018-05-10T06:08:46.868Z,98252.52
2018-05-10T06:11:20.420Z,98257.89
2018-05-10T06:13:54.012Z,98262.00
2018-05-10T06:16:27.691Z,98272.97
2018-05-10T06:19:01.452Z,98272.72
2018-05-10T06:21:35.323Z,98271.03
2018-05-10T06:24:09.008Z,98277.64
2018-05-10T06:26:42.690Z,98276.05
2018-05-10T06:29:16.343Z,98282.39
2018-05-10T06:31:50.000Z,98283.02
2018-05-10T06:34:23.604Z,98289.18
2018-05-10T06:36:57.123Z,98288.25
2018-05-10T06:39:30.864Z,98285.59
2018-05-10T06:42:04.536Z,98282.94
2018-05-10T06:44:38.101Z,98287.16
2018-05-10T06:47:25.743Z,98286.37
2018-05-10T06:49:59.520Z,98285.17
2018-05-10T06:52:33.277Z,98282.98
2018-05-10T06:55:06.964Z,98277.45
2018-05-10T06:57:40.600Z,98276.53
2018-05-10T07:00:14.273Z,98284.36
2018-05-10T07:02:48.049Z,98284.03
2018-05-10T07:05:21.625Z,98288.52
2018-05-10T07:07:55.224Z,98288.70
2018-05-10T07:10:28.896Z,98292.34
2018-05-10T07:13:02.660Z,98300.38
2018-05-10T07:15:36.528Z,98301.50
2018-05-10T07:18:10.095Z,98302.06
2018-05-10T07:20:43.625Z,98299.25
2018-05-10T07:23:17.280Z,98301.78
2018-05-10T07:25:50.811Z,98302.20
2018-05-10T07:28:24.462Z,98295.59
2018-05-10T07:30:58.111Z,98294.33
2018-05-10T07:33:31.767Z,98292.13
2018-05-10T07:36:05.339Z,98294.24
2018-05-10T07:38:39.048Z,98302.48
2018-05-10T07:41:12.630Z,98299.95
2018-05-10T07:43:46.305Z,98297.36
2018-05-10T07:46:19.871Z,98294.74
2018-05-10T07:48:53.392Z,98293.20
2018-05-10T07:51:27.332Z,98307.19
2018-05-10T07:54:00.917Z,98313.24
2018-05-10T07:56:34.472Z,98306.66
2018-05-10T07:59:08.048Z,98297.59
2018-05-10T08:01:41.672Z,98300.27
2018-05-10T08:04:15.354Z,98303.14
2018-05-10T08:06:48.932Z,98310.88
2018-05-10T08:09:22.564Z,98318.50
2018-05-10T08:11:56.212Z,98335.30
2018-05-10T08:14:29.867Z,98338.77
2018-05-10T08:17:03.692Z,98344.67
2018-05-10T08:19:37.252Z,98353.28
2018-05-10T08:22:10.776Z,98363.83
2018-05-10T08:24:44.376Z,98359.48
2018-05-10T08:27:18.157Z,98364.50
2018-05-10T08:29:51.741Z,98355.05
2018-05-10T08:32:25.265Z,98356.13
2018-05-10T08:34:59.080Z,98367.74
2018-05-10T08:37:32.586Z,98371.06
2018-05-10T08:40:06.205Z,98365.00
2018-05-10T08:42:39.862Z,98366.66
2018-05-10T08:45:13.661Z,98378.39
2018-05-10T08:47:47.401Z,98392.39
2018-05-10T08:50:20.951Z,98397.23
2018-05-10T08:52:54.622Z,98399.23
2018-05-10T08:55:28.429Z,98407.42
2018-05-10T08:58:02.129Z,98408.95
2018-05-10T09:00:35.933Z,98412.80
2018-05-10T09:03:09.428Z,98411.35
2018-05-10T09:05:42.928Z,98413.48
2018-05-10T09:08:16.738Z,98410.33
2018-05-10T09:10:50.402Z,98416.31
2018-05-10T09:13:24.056Z,98408.31
2018-05-10T09:15:57.668Z,98410.00
2018-05-10T09:18:31.340Z,98422.84
2018-05-10T09:21:04.929Z,98429.32
2018-05-10T09:23:38.543Z,98428.73
2018-05-10T09:26:12.242Z,98435.28
2018-05-10T09:28:45.909Z,98441.89
2018-05-10T09:31:19.468Z,98443.59
2018-05-10T09:33:53.042Z,98449.62
2018-05-10T09:36:26.621Z,98452.41
2018-05-10T09:39:00.373Z,98462.75
2018-05-10T09:41:34.109Z,98462.25
2018-05-10T09:44:07.777Z,98462.46
2018-05-10T09:46:41.457Z,98473.34
2018-05-10T09:49:15.058Z,98478.95
2018-05-10T09:51:48.557Z,98480.28
2018-05-10T09:54:22.120Z,98483.32
2018-05-10T09:56:55.729Z,98484.68
2018-05-10T09:59:29.292Z,98500.75
2018-05-10T10:02:02.921Z,98501.80
2018-05-10T10:04:36.738Z,98505.30
2018-05-10T10:07:10.352Z,98511.20
2018-05-10T10:09:43.906Z,98501.97
2018-05-10T10:12:17.535Z,98517.59
2018-05-10T10:14:51.288Z,98525.30
2018-05-10T10:17:24.849Z,98531.11
2018-05-10T10:19:58.468Z,98536.15
2018-05-10T10:22:32.221Z,98532.98
2018-05-10T10:25:05.956Z,98540.41
2018-05-10T10:27:39.493Z,98547.17
2018-05-10T10:30:13.235Z,98553.55
2018-05-10T10:32:47.002Z,98561.52
2018-05-10T10:35:20.753Z,98573.19
2018-05-10T10:37:54.552Z,98573.95
2018-05-10T10:40:28.297Z,98573.66
2018-05-10T10:43:02.130Z,98583.19
2018-05-10T10:45:35.677Z,98582.13
2018-05-10T10:48:09.499Z,98586.52
2018-05-10T10:50:43.213Z,98588.76
2018-05-10T10:53:16.849Z,98598.87
2018-05-10T10:55:50.617Z,98607.52
2018-05-10T10:58:24.151Z,98600.17
2018-05-10T11:00:57.669Z,98606.04
2018-05-10T11:03:31.281Z,98609.25
2018-05-10T11:06:04.813Z,98611.58
2018-05-10T11:08:38.429Z,98618.75
2018-05-10T11:11:12.137Z,98624.83
2018-05-10T11:13:45.688Z,98626.25
2018-05-10T11:16:19.239Z,98634.42
2018-05-10T11:18:53.100Z,98640.92
2018-05-10T11:21:26.649Z,98642.78
2018-05-10T11:24:00.381Z,98653.67
2018-05-10T11:26:33.901Z,98649.37
2018-05-10T11:29:07.429Z,98652.27
2018-05-10T11:31:40.957Z,98654.25
2018-05-10T11:34:14.588Z,98661.44
2018-05-10T11:36:48.186Z,98661.84
2018-05-10T11:39:21.901Z,98668.83
2018-05-10T11:41:55.589Z,98671.06
2018-05-10T11:44:29.146Z,98683.67
2018-05-10T11:47:02.793Z,98678.45
2018-05-10T11:49:36.368Z,98686.69
2018-05-10T11:52:09.954Z,98688.20
2018-05-10T11:54:43.625Z,98694.37
2018-05-10T11:57:17.402Z,98703.25
2018-05-10T11:59:50.876Z,98706.59
2018-05-10T12:02:24.389Z,98709.09
2018-05-10T12:04:58.150Z,98708.13
2018-05-10T12:07:31.697Z,98705.34
2018-05-10T12:10:05.290Z,98707.06
2018-05-10T12:12:39.000Z,98708.89
2018-05-10T12:15:12.677Z,98709.08
2018-05-10T12:17:46.259Z,98712.22
2018-05-10T12:20:19.877Z,98710.50
2018-05-10T12:22:53.369Z,98709.88
2018-05-10T12:25:27.168Z,98713.90
2018-05-10T12:28:00.873Z,98710.24
2018-05-10T12:30:34.473Z,98717.77
2018-05-10T12:33:08.199Z,98720.44
2018-05-10T12:35:41.722Z,98728.64
2018-05-10T12:38:15.252Z,98729.54
2018-05-10T12:40:48.753Z,98727.91
2018-05-10T12:43:22.290Z,98735.92
2018-05-10T12:45:56.040Z,98734.23
2018-05-10T12:48:29.789Z,98739.47
2018-05-10T12:51:03.404Z,98734.38
2018-05-10T12:53:37.122Z,98740.25
2018-05-10T12:56:10.873Z,98736.50
2018-05-10T12:58:44.385Z,98737.12
2018-05-10T13:01:18.093Z,98742.47
2018-05-10T13:03:51.686Z,98747.14
2018-05-10T13:06:25.260Z,98745.33
2018-05-10T13:08:59.023Z,98749.23
2018-05-10T13:11:32.849Z,98755.83
2018-05-10T13:14:06.478Z,98755.09
2018-05-10T13:16:40.207Z,98753.41
2018-05-10T13:19:13.730Z,98756.59
2018-05-10T13:21:47.453Z,98746.92
2018-05-10T13:24:21.158Z,98746.11
2018-05-10T13:26:54.638Z,98752.92
2018-05-10T13:29:28.461Z,98751.06
2018-05-10T13:32:01.991Z,98753.77
2018-05-10T13:34:35.802Z,98767.23
2018-05-10T13:37:09.459Z,98760.87
2018-05-10T13:39:43.228Z,98761.84
2018-05-10T13:42:16.948Z,98768.09
2018-05-10T13:44:50.652Z,98769.67
2018-05-10T13:47:24.387Z,98768.13
2018-05-10T13:49:57.873Z,98778.44
2018-05-10T13:52:31.582Z,98774.80
2018-05-10T13:55:05.221Z,98772.56
2018-05-10T13:57:38.949Z,98778.48
2018-05-10T14:00:12.481Z,98780.22
2018-05-10T14:02:46.060Z,98779.68
2018-05-10T14:05:19.677Z,98779.94
2018-05-10T14:07:53.521Z,98781.67
2018-05-10T14:10:27.118Z,98780.89
2018-05-10T14:13:00.765Z,98782.03
2018-05-10T14:15:35.014Z,98789.22
2018-05-10T14:18:08.676Z,98794.86
2018-05-10T14:20:42.502Z,98795.98
2018-05-10T14:23:16.129Z,98797.69
2018-05-10T14:25:49.912Z,98796.29
2018-05-10T14:28:23.477Z,98797.85
2018-05-10T14:30:57.334Z,98799.83
2018-05-10T14:33:31.026Z,98801.55
2018-05-10T14:36:04.574Z,98802.45
2018-05-10T14:38:38.245Z,98806.48
2018-05-10T14:41:11.907Z,98800.08
2018-05-10T14:43:45.600Z,98814.76
2018-05-10T14:46:19.207Z,98822.52
2018-05-10T14:48:52.981Z,98812.86
2018-05-10T14:51:26.719Z,98812.41
2018-05-10T14:54:00.527Z,98814.37
2018-05-10T14:56:34.274Z,98813.07
2018-05-10T14:59:07.917Z,98819.90
2018-05-10T15:01:41.648Z,98821.72
2018-05-10T15:04:15.177Z,98826.82
2018-05-10T15:06:48.929Z,98831.30
2018-05-10T15:09:22.485Z,98828.02
2018-05-10T15:11:56.063Z,98830.97
2018-05-10T15:14:29.657Z,98831.78
2018-05-10T15:17:03.242Z,98834.05
2018-05-10T15:19:36.792Z,98830.00
2018-05-10T15:22:10.601Z,98832.45
2018-05-10T15:24:44.237Z,98832.80
2018-05-10T15:27:17.877Z,98826.45
2018-05-10T15:29:51.456Z,98822.70
2018-05-10T15:32:25.214Z,98826.19
2018-05-10T15:34:58.893Z,98827.84
2018-05-10T15:37:32.744Z,98840.11
2018-05-10T15:40:06.394Z,98836.97
2018-05-10T15:42:39.945Z,98844.28
2018-05-10T15:45:13.500Z,98851.44
2018-05-10T15:47:47.096Z,98851.24
2018-05-10T15:50:20.647Z,98855.09
2018-05-10T15:52:54.127Z,98851.87
2018-05-10T15:55:27.964Z,98864.41
2018-05-10T15:58:01.560Z,98862.31
2018-05-10T16:00:35.205Z,98867.71
2018-05-10T16:03:09.048Z,98871.13
2018-05-10T16:05:42.796Z,98875.50
2018-05-10T16:08:16.576Z,98881.39
2018-05-10T16:10:50.214Z,98880.56
2018-05-10T16:13:24.072Z,98877.89
2018-05-10T16:15:57.675Z,98880.06
2018-05-10T16:18:31.219Z,98894.18
2018-05-10T16:21:04.785Z,98904.55
2018-05-10T16:23:38.660Z,98903.58
2018-05-10T16:26:12.337Z,98906.22
2018-05-10T16:28:46.040Z,98903.41
2018-05-10T16:31:19.641Z,98910.48
2018-05-10T16:33:53.348Z,98913.77
2018-05-10T16:36:26.923Z,98913.06
2018-05-10T16:39:00.555Z,98929.25
2018-05-10T16:41:34.121Z,98930.80
2018-05-10T16:44:07.739Z,98936.53
2018-05-10T16:46:41.396Z,98939.69
2018-05-10T16:49:15.155Z,98948.33
2018-05-10T16:51:48.794Z,98949.31
2018-05-10T16:54:22.445Z,98949.73
2018-05-10T16:56:56.156Z,98951.39
2018-05-10T16:59:29.934Z,98961.48
2018-05-10T17:02:03.724Z,98973.63
2018-05-10T17:04:37.432Z,98982.46
2018-05-10T17:07:11.309Z,98977.36
2018-05-10T17:09:45.113Z,98977.64
2018-05-10T17:12:18.932Z,98985.83
2018-05-10T17:14:52.515Z,98990.16
2018-05-10T17:17:26.140Z,98993.36
2018-05-10T17:19:59.861Z,98996.33
2018-05-10T17:22:33.585Z,98999.86
2018-05-10T17:25:07.273Z,99002.82
2018-05-10T17:27:40.936Z,99001.96
2018-05-10T17:30:14.530Z,99006.06
2018-05-10T17:32:48.506Z,99015.26
2018-05-10T17:35:22.224Z,99013.73
2018-05-10T17:37:55.965Z,99017.15
2018-05-10T17:40:29.645Z,99016.75
2018-05-10T17:43:03.620Z,99022.39
2018-05-10T17:45:37.538Z,99019.30
2018-05-10T17:48:11.301Z,99020.91
2018-05-10T17:50:44.979Z,99034.70
2018-05-10T17:53:18.711Z,99042.36
2018-05-10T17:55:52.372Z,99048.38
2018-05-10T17:58:26.029Z,99045.77
2018-05-10T18:00:59.663Z,99058.21
2018-05-10T18:03:33.439Z,99065.09
2018-05-10T18:06:07.074Z,99077.19
2018-05-10T18:08:40.758Z,99081.08
2018-05-10T18:11:14.418Z,99082.05
2018-05-10T18:13:48.188Z,99079.42
2018-05-10T18:19:21.978Z,99093.59
2018-05-10T18:21:55.841Z,99098.83
2018-05-10T18:24:29.531Z,99111.50
2018-05-10T18:27:03.190Z,99108.36
2018-05-10T18:29:36.768Z,99111.12
2018-05-10T18:32:10.672Z,99116.77
2018-05-10T18:34:44.323Z,99127.36
2018-05-10T18:37:18.030Z,99131.41
2018-05-10T18:39:51.717Z,99140.58
2018-05-10T18:42:25.303Z,99143.96
2018-05-10T18:44:59.025Z,99145.36
2018-05-10T18:47:32.742Z,99150.44
2018-05-10T18:50:06.425Z,99150.30
2018-05-10T18:52:40.041Z,99157.53
2018-05-10T18:55:13.873Z,99167.17
2018-05-10T18:57:47.546Z,99170.16
2018-05-10T19:00:21.211Z,99172.18
2018-05-10T19:02:54.930Z,99173.62
2018-05-10T19:05:28.661Z,99181.19
2018-05-10T19:08:02.330Z,99182.88
2018-05-10T19:10:36.057Z,99186.95
2018-05-10T19:13:09.874Z,99193.29
2018-05-10T19:15:43.707Z,99202.84
2018-05-10T19:18:17.377Z,99200.59
2018-05-10T19:20:51.148Z,99209.69
2018-05-10T19:23:24.835Z,99214.00
2018-05-10T19:25:58.587Z,99212.41
2018-05-10T19:28:32.222Z,99217.38
2018-05-10T19:31:05.959Z,99223.16
2018-05-10T19:33:39.622Z,99224.65
2018-05-10T19:36:13.243Z,99230.66
2018-05-10T19:38:46.882Z,99233.06
2018-05-10T19:41:20.603Z,99235.62
2018-05-10T19:43:54.105Z,99241.08
2018-05-10T19:46:27.739Z,99242.27
2018-05-10T19:49:01.763Z,99250.12
2018-05-10T19:51:35.778Z,99255.58
2018-05-10T19:54:09.382Z,99250.91
2018-05-10T19:56:43.004Z,99253.95
2018-05-10T19:59:16.640Z,99258.98
2018-05-10T20:01:50.366Z,99262.27
2018-05-10T20:04:24.122Z,99265.28
2018-05-10T20:06:57.858Z,99270.67
2018-05-10T20:09:31.411Z,99270.06
2018-05-10T20:12:05.170Z,99275.41
2018-05-10T20:14:38.805Z,99283.13
2018-05-10T20:17:12.616Z,99295.02
2018-05-10T20:19:46.478Z,99292.42
2018-05-10T20:22:20.174Z,99292.37
2018-05-10T20:24:53.925Z,99302.91
2018-05-10T20:27:27.684Z,99307.58
2018-05-10T20:30:01.378Z,99314.51
2018-05-10T20:32:35.106Z,99323.48
2018-05-10T20:35:08.843Z,99328.55
2018-05-10T20:37:42.491Z,99326.63
2018-05-10T20:40:16.197Z,99326.70
2018-05-10T20:42:49.914Z,99331.67
2018-05-10T20:45:23.627Z,99332.64
2018-05-10T20:47:57.217Z,99344.05
2018-05-10T20:50:30.985Z,99334.80
2018-05-10T20:53:04.748Z,99338.35
2018-05-10T20:55:38.625Z,99342.95
2018-05-10T20:58:12.266Z,99341.86
2018-05-10T21:00:46.022Z,99343.59
2018-05-10T21:03:19.690Z,99345.66
2018-05-10T21:05:53.495Z,99343.48
2018-05-10T21:08:27.522Z,99348.46
2018-05-10T21:11:01.247Z,99349.02
2018-05-10T21:13:34.956Z,99355.89
2018-05-10T21:16:08.497Z,99360.58
2018-05-10T21:18:42.159Z,99358.64
2018-05-10T21:21:15.892Z,99364.83
2018-05-10T21:23:49.692Z,99362.21
2018-05-10T21:26:23.487Z,99369.27
2018-05-10T21:28:57.222Z,99370.09
2018-05-10T21:31:30.852Z,99376.34
2018-05-10T21:34:04.653Z,99379.53
2018-05-10T21:36:38.188Z,99382.24
2018-05-10T21:39:11.881Z,99388.03
2018-05-10T21:41:45.655Z,99391.09
2018-05-10T21:44:19.352Z,99389.75
2018-05-10T21:46:52.970Z,99396.84
2018-05-10T21:49:38.625Z,99391.97
2018-05-10T21:52:12.341Z,99397.40
2018-05-10T21:54:46.159Z,99397.89
2018-05-10T21:57:19.951Z,99404.22
2018-05-10T21:59:53.525Z,99408.36
2018-05-10T22:02:27.152Z,99399.30
2018-05-10T22:05:00.874Z,99403.82
2018-05-10T22:07:34.678Z,99405.67
2018-05-10T22:10:08.213Z,99409.30
2018-05-10T22:12:41.933Z,99406.08
2018-05-10T22:15:15.641Z,99408.88
2018-05-10T22:17:49.282Z,99402.09
2018-05-10T22:20:23.066Z,99408.56
2018-05-10T22:22:56.807Z,99415.50
2018-05-10T22:25:30.525Z,99404.21
2018-05-10T22:28:04.085Z,99406.56
2018-05-10T22:30:37.863Z,99410.17
2018-05-10T22:33:11.577Z,99407.49
2018-05-10T22:35:45.177Z,99412.05
2018-05-10T22:38:19.037Z,99407.80
2018-05-10T22:40:52.810Z,99409.19
2018-05-10T22:43:26.442Z,99412.59
2018-05-10T22:46:00.041Z,99415.13
2018-05-10T22:48:33.681Z,99415.47
2018-05-10T22:51:07.672Z,99419.53
2018-05-10T22:53:41.403Z,99421.49
2018-05-10T22:56:15.167Z,99418.75
2018-05-10T22:58:48.985Z,99430.34
2018-05-10T23:01:22.700Z,99425.61
2018-05-10T23:03:56.490Z,99421.30
2018-05-10T23:06:30.073Z,99432.65
2018-05-10T23:09:03.725Z,99435.35
2018-05-10T23:11:37.533Z,99433.92
2018-05-10T23:14:11.133Z,99439.73
2018-05-10T23:16:44.913Z,99439.36
2018-05-10T23:19:18.737Z,99444.11
2018-05-10T23:21:52.438Z,99441.95
2018-05-10T23:24:26.057Z,99438.55
2018-05-10T23:26:59.925Z,99435.23
2018-05-10T23:29:33.844Z,99438.15
2018-05-10T23:32:07.544Z,99437.34
2018-05-10T23:34:41.191Z,99439.27
2018-05-10T23:37:15.067Z,99443.69
2018-05-10T23:39:48.688Z,99445.67
2018-05-10T23:42:22.262Z,99446.53
2018-05-10T23:44:55.909Z,99441.97
2018-05-10T23:47:29.613Z,99443.09
2018-05-10T23:50:03.193Z,99443.38
2018-05-10T23:52:36.804Z,99445.30
2018-05-10T23:55:10.532Z,99443.17
2018-05-10T23:57:44.355Z,99444.27
